Time;durP1;ratioP1;P1;durP2;ratioP2;P2;SDS_P1;SDS_P2;PMS_P1;PMS_P2;Temp;Humidity;BMP_temperature;BMP_pressure;BME280_temperature;BME280_humidity;BME280_pressure;Samples;Min_cycle;Max_cycle;Signal;HPM_P1;HPM_P2
2022/12/16 00:00:22;;;;;;;46.53;30.47;;;;;;;-4.40;100.00;100848.81;5030951;28;20501;-62
2022/12/16 00:02:48;;;;;;;44.40;30.63;;;;;;;-4.38;100.00;100844.78;5034904;28;20017;-61
2022/12/16 00:05:13;;;;;;;42.17;30.37;;;;;;;-4.35;100.00;100845.06;5014582;28;20053;-62
2022/12/16 00:07:38;;;;;;;41.27;29.77;;;;;;;-4.30;100.00;100844.59;5020596;28;20021;-62
2022/12/16 00:10:04;;;;;;;39.93;28.50;;;;;;;-4.25;100.00;100843.38;5012817;28;20409;-62
2022/12/16 00:12:30;;;;;;;40.07;28.33;;;;;;;-4.22;100.00;100841.13;5017854;28;20033;-62
2022/12/16 00:14:55;;;;;;;41.23;28.63;;;;;;;-4.19;100.00;100846.44;5021481;28;20544;-62
2022/12/16 00:17:20;;;;;;;37.70;27.83;;;;;;;-4.16;100.00;100849.28;5018041;28;20029;-61
2022/12/16 00:19:46;;;;;;;41.47;30.33;;;;;;;-4.15;100.00;100840.94;5019324;28;20029;-62
2022/12/16 00:22:11;;;;;;;35.50;27.53;;;;;;;-4.12;100.00;100838.66;5016719;28;20061;-62
2022/12/16 00:24:36;;;;;;;40.60;28.37;;;;;;;-4.10;100.00;100837.19;5018639;28;20420;-62
2022/12/16 00:27:01;;;;;;;34.33;26.97;;;;;;;-4.06;100.00;100830.75;5014464;28;20145;-63
2022/12/16 00:29:27;;;;;;;37.33;27.60;;;;;;;-4.02;100.00;100834.44;5025196;28;20402;-62
2022/12/16 00:31:52;;;;;;;34.87;27.87;;;;;;;-4.01;100.00;100834.59;5013299;28;20389;-62
2022/12/16 00:34:17;;;;;;;40.77;28.63;;;;;;;-3.99;100.00;100838.16;5026688;28;20040;-62
2022/12/16 00:36:43;;;;;;;38.07;27.07;;;;;;;-3.97;100.00;100835.75;5023147;28;20385;-63
2022/12/16 00:39:10;;;;;;;36.53;26.83;;;;;;;-3.96;100.00;100836.66;5027001;28;20033;-62
2022/12/16 00:41:35;;;;;;;37.77;27.33;;;;;;;-3.94;100.00;100836.03;5026180;28;20021;-62
2022/12/16 00:44:01;;;;;;;33.50;25.60;;;;;;;-3.94;100.00;100828.44;5025558;28;20037;-62
2022/12/16 00:46:26;;;;;;;35.37;25.90;;;;;;;-3.92;100.00;100833.66;5024812;28;20033;-62
2022/12/16 00:48:51;;;;;;;39.47;28.37;;;;;;;-3.90;100.00;100843.16;5026071;28;20110;-62
2022/12/16 00:51:17;;;;;;;39.83;28.43;;;;;;;-3.89;100.00;100844.97;5022850;28;20025;-62
2022/12/16 00:53:42;;;;;;;36.93;27.30;;;;;;;-3.87;100.00;100833.28;5025130;28;20438;-62
2022/12/16 00:56:09;;;;;;;39.77;26.90;;;;;;;-3.86;100.00;100837.63;5022256;28;20029;-62
2022/12/16 00:58:36;;;;;;;36.33;26.23;;;;;;;-3.82;100.00;100835.38;5024180;28;20057;-62
2022/12/16 01:01:02;;;;;;;32.57;25.47;;;;;;;-3.79;100.00;100845.75;5014192;28;20105;-62
2022/12/16 01:03:27;;;;;;;36.07;25.87;;;;;;;-3.77;100.00;100851.88;5016090;28;20022;-62
2022/12/16 01:05:53;;;;;;;34.60;25.23;;;;;;;-3.76;100.00;100846.94;5012408;28;20367;-60
2022/12/16 01:08:18;;;;;;;33.53;26.63;;;;;;;-3.74;100.00;100854.66;5015990;28;20333;-60
2022/12/16 01:10:55;;;;;;;32.70;24.33;;;;;;;-3.72;100.00;100854.84;5014951;28;20026;-60
2022/12/16 01:13:23;;;;;;;36.40;26.80;;;;;;;-3.71;100.00;100857.50;5019083;28;20026;-60
2022/12/16 01:15:48;;;;;;;36.37;24.90;;;;;;;-3.70;100.00;100861.78;5026730;28;20030;-60
2022/12/16 01:18:13;;;;;;;34.90;25.83;;;;;;;-3.68;100.00;100870.44;5027177;28;20013;-60
2022/12/16 01:20:39;;;;;;;35.57;25.93;;;;;;;-3.66;100.00;100868.03;5013517;28;20144;-60
2022/12/16 01:23:04;;;;;;;39.17;26.00;;;;;;;-3.65;100.00;100873.22;5019567;28;20063;-60
2022/12/16 01:25:29;;;;;;;33.63;25.50;;;;;;;-3.65;100.00;100870.69;5020660;28;20022;-60
2022/12/16 01:27:55;;;;;;;32.07;25.40;;;;;;;-3.63;100.00;100871.72;5026280;28;20036;-60
2022/12/16 01:30:21;;;;;;;36.10;25.93;;;;;;;-3.60;100.00;100872.75;5019229;28;20026;-60
2022/12/16 01:32:46;;;;;;;34.70;25.90;;;;;;;-3.58;100.00;100876.34;5008296;28;20026;-60
2022/12/16 01:35:12;;;;;;;35.33;26.23;;;;;;;-3.58;100.00;100876.34;5014497;28;20398;-60
2022/12/16 01:37:37;;;;;;;35.40;26.27;;;;;;;-3.56;100.00;100884.97;5025742;28;20026;-60
2022/12/16 01:40:03;;;;;;;38.70;26.57;;;;;;;-3.56;100.00;100884.97;5026619;28;20026;-60
2022/12/16 01:42:30;;;;;;;33.43;25.07;;;;;;;-3.54;100.00;100888.50;5026349;28;20242;-60
2022/12/16 01:44:55;;;;;;;34.37;25.33;;;;;;;-3.54;100.00;100884.34;5011594;28;20032;-60
2022/12/16 01:47:26;;;;;;;33.17;25.90;;;;;;;-3.53;100.00;100885.25;5015240;28;20034;-60
2022/12/16 01:50:08;;;;;;;37.42;26.40;;;;;;;-3.52;100.00;100887.00;5019784;28;20045;-60
2022/12/16 01:52:39;;;;;;;31.90;25.03;;;;;;;-3.51;100.00;100904.00;5026379;28;20018;-60
2022/12/16 01:55:14;;;;;;;34.92;26.05;;;;;;;-3.51;100.00;100909.94;5026371;28;20021;-60
2022/12/16 01:57:43;;;;;;;34.90;25.47;;;;;;;-3.50;100.00;100911.75;5026482;28;20037;-60
2022/12/16 02:00:09;;;;;;;34.10;24.87;;;;;;;-3.48;100.00;100908.44;5026162;28;20466;-60
2022/12/16 02:02:35;;;;;;;35.63;25.93;;;;;;;-3.49;100.00;100897.44;5017823;28;20097;-61
2022/12/16 02:05:19;;;;;;;32.00;25.93;;;;;;;-3.47;100.00;100903.50;5019825;28;20029;-61
2022/12/16 02:08:14;;;;;;;33.97;26.13;;;;;;;-3.47;100.00;100911.09;5007084;28;20034;-60
2022/12/16 02:10:42;;;;;;;37.03;24.47;;;;;;;-3.45;100.00;100914.69;5012519;28;20021;-60
2022/12/16 02:13:58;;;;;;;34.00;25.80;;;;;;;-3.43;100.00;100912.28;5014651;28;20112;-60
2022/12/16 02:16:48;;;;;;;33.83;24.50;;;;;;;-3.43;100.00;100913.19;4988289;28;20053;-60
2022/12/16 02:19:42;;;;;;;33.67;26.00;;;;;;;-3.41;100.00;100915.84;5026109;28;20508;-61
2022/12/16 02:22:28;;;;;;;35.17;26.47;;;;;;;-3.40;100.00;100913.44;5027685;28;20476;-60
2022/12/16 02:25:29;;;;;;;30.47;24.30;;;;;;;-3.40;100.00;100923.59;5029776;28;20034;-60
2022/12/16 02:28:03;;;;;;;34.03;25.10;;;;;;;-3.38;100.00;100922.09;4943857;28;20124;-60
2022/12/16 02:30:42;;;;;;;30.73;24.43;;;;;;;-3.38;100.00;100928.78;5024004;28;20033;-60
2022/12/16 02:33:33;;;;;;;37.20;26.50;;;;;;;-3.37;100.00;100935.66;5029836;28;20029;-60
2022/12/16 02:36:02;;;;;;;;;;;;;;;-3.35;100.00;100938.31;5029748;28;20503;-60
2022/12/16 02:39:04;;;;;;;34.73;27.13;;;;;;;-3.34;100.00;100933.38;5029256;28;19935;-61
2022/12/16 02:41:45;;;;;;;28.97;23.27;;;;;;;-3.34;100.00;100927.41;5018813;28;20045;-60
2022/12/16 02:44:11;;;;;;;;;;;;;;;-3.33;100.00;100932.66;5017193;28;20017;-60
2022/12/16 02:46:52;;;;;;;34.93;23.87;;;;;;;-3.32;100.00;100931.88;5028982;28;19909;-61
2022/12/16 02:49:17;;;;;;;30.58;24.17;;;;;;;-3.32;100.00;100931.00;5017036;28;20504;-60
2022/12/16 02:51:43;;;;;;;36.27;25.53;;;;;;;-3.31;100.00;100935.31;5028490;28;20104;-61
2022/12/16 02:54:10;;;;;;;34.33;24.67;;;;;;;-3.30;100.00;100944.69;5028403;28;20025;-60
2022/12/16 02:56:49;;;;;;;32.30;25.53;;;;;;;-3.30;100.00;100944.69;5028568;28;20404;-60
2022/12/16 02:59:24;;;;;;;32.90;25.43;;;;;;;-3.28;100.00;100938.13;5021950;28;20037;-61
2022/12/16 03:02:11;;;;;;;32.70;25.23;;;;;;;-3.27;100.00;100940.78;5016550;28;20382;-60
2022/12/16 03:04:52;;;;;;;29.30;24.70;;;;;;;-3.25;100.00;100933.31;5013931;28;20068;-61
2022/12/16 03:07:22;;;;;;;32.67;25.10;;;;;;;-3.24;100.00;100931.69;5012746;28;20435;-60
2022/12/16 03:09:48;;;;;;;37.90;26.77;;;;;;;-3.23;100.00;100939.41;5025526;28;20024;-60
2022/12/16 03:12:17;;;;;;;37.60;26.70;;;;;;;-3.21;100.00;100939.56;5019068;28;20033;-61
2022/12/16 03:14:46;;;;;;;34.27;26.47;;;;;;;-3.21;100.00;100931.94;5029095;28;20127;-60
2022/12/16 03:17:14;;;;;;;36.40;26.77;;;;;;;-3.20;100.00;100939.69;5021382;28;20087;-61
2022/12/16 03:19:46;;;;;;;35.00;26.60;;;;;;;-3.18;100.00;100945.78;5014776;28;20070;-61
2022/12/16 03:22:16;;;;;;;37.63;27.60;;;;;;;-3.18;100.00;100950.88;5011532;28;20402;-60
2022/12/16 03:24:42;;;;;;;36.93;27.63;;;;;;;-3.17;100.00;100951.75;5028165;28;20374;-60
2022/12/16 03:27:30;;;;;;;38.83;28.40;;;;;;;-3.17;100.00;100946.69;5029079;28;20078;-60
2022/12/16 03:30:05;;;;;;;37.40;29.23;;;;;;;-3.16;100.00;100949.34;5011810;28;20014;-60
2022/12/16 03:32:37;;;;;;;38.40;28.27;;;;;;;-3.16;100.00;100958.59;5013172;28;20034;-60
2022/12/16 03:35:19;;;;;;;38.63;28.80;;;;;;;-3.16;100.00;100959.50;5024248;28;20503;-61
2022/12/16 03:37:48;;;;;;;41.63;30.77;;;;;;;-3.16;100.00;100951.91;5015482;28;20030;-61
2022/12/16 03:40:14;;;;;;;40.23;31.07;;;;;;;-3.15;100.00;100961.28;5017862;28;20025;-61
2022/12/16 03:42:41;;;;;;;45.40;31.97;;;;;;;-3.15;100.00;100961.28;5012335;28;20449;-60
2022/12/16 03:45:13;;;;;;;45.30;33.73;;;;;;;-3.15;100.00;100960.41;5012523;28;20022;-61
2022/12/16 03:47:38;;;;;;;39.13;31.43;;;;;;;-3.15;100.00;100960.41;5012777;28;20478;-61
2022/12/16 03:50:05;;;;;;;41.73;33.03;;;;;;;-3.15;100.00;100973.06;5014457;28;20112;-60
2022/12/16 03:52:30;;;;;;;42.03;32.53;;;;;;;-3.16;100.00;100968.75;5013284;28;20386;-60
2022/12/16 03:54:55;;;;;;;44.10;33.73;;;;;;;-3.16;100.00;100968.75;5014242;28;20121;-61
2022/12/16 03:57:21;;;;;;;45.47;31.43;;;;;;;-3.17;100.00;100972.03;5018366;28;20362;-60
2022/12/16 03:59:46;;;;;;;49.27;32.33;;;;;;;-3.19;100.00;100979.53;5013628;28;20038;-60
2022/12/16 04:02:11;;;;;;;45.73;33.63;;;;;;;-3.19;100.00;100974.44;5008952;28;20029;-60
2022/12/16 04:04:36;;;;;;;47.13;35.30;;;;;;;-3.19;100.00;100984.59;5009840;28;20599;-60
2022/12/16 04:07:20;;;;;;;44.67;34.50;;;;;;;-3.19;100.00;100989.66;5009511;28;20054;-60
2022/12/16 04:09:47;;;;;;;47.37;34.87;;;;;;;-3.19;100.00;100989.66;5022400;28;20030;-60
2022/12/16 04:26:09;;;;;;;46.87;34.10;;;;;;;-3.16;100.00;101006.78;5022142;28;20041;-60
2022/12/16 04:28:34;;;;;;;54.20;35.93;;;;;;;-3.15;100.00;101006.03;5019854;28;20057;-60
2022/12/16 04:30:59;;;;;;;49.13;35.27;;;;;;;-3.14;100.00;101010.34;5013423;28;20484;-60
